Austrian Airlines - Betriebsrat Bord

  • Increase font size
  • Default font size
  • Decrease font size
Austrian Airlines - Betriebsrat Bord

Passwort vergessen? Wie (re)aktiviere ich meinen Account?

Jeder Mitarbeiter des fliegenden OS-Personals hat Mitte Juni 2009 ein automatisches E-Mail an seine Firmen-Adresse mit den Zugangsdaten (User und Passwort)  zu on-board.at erhalten. Als User wurde vorname.nachname (der erste Teil Eurer Firmen-Adresse ohne@austrian.com) vergeben, das Passwort ist eine per Zufallsgenerator erstellte Zahlen-/Buchstabenkombination. Jeder Berechtigte hat somit bereits einen aktiven Account.

Sollten Euch Eure Zugangsdaten abhanden gekommen sein oder Ihr Probleme haben, Euch einzuloggen, dann könnt Ihr den Account wie folgt reaktivieren: (bitte auf READ MORE klicken):

Read more...
 

METAR and TAF

LOWW 272350Z 24004KT 190V270 9999 FEW050CB SCT130 BKN180 18/14 Q1014 NOSIG=

LOWW 271942Z 2719/2824 14005KT 9999 FEW050 FEW050CB SCT120 TX27/2813Z TN13/2803Z TEMPO 2723/2802 VRB15G30KT 6000 TSRA BKN040 SCT050CB BECMG 2802/2804 FEW050 TEMPO 2802/2806 5000 BR NSC BECMG 2808/2810 14012KT TEMPO 2813/2820 FEW050 FEW060CB PROB30 TEMPO 2815/2819 TS=